Time;durP1;ratioP1;P1;durP2;ratioP2;P2;SDS_P1;SDS_P2;PMS_P1;PMS_P2;Temp;Humidity;BMP_temperature;BMP_pressure;BME280_temperature;BME280_humidity;BME280_pressure;Samples;Min_cycle;Max_cycle;Signal;HPM_P1;HPM_P2
2022/10/14 00:00:41;;;;;;;8.20;4.30;;;;;;;9.33;100.00;93225.41;2122069;27;20027;-76
2022/10/14 00:01:41;;;;;;;5.43;4.60;;;;;;;9.28;100.00;93226.59;2122404;27;20094;-75
2022/10/14 00:02:42;;;;;;;7.53;4.60;;;;;;;9.30;100.00;93220.88;2122642;27;20031;-75
2022/10/14 00:03:44;;;;;;;6.68;4.32;;;;;;;9.34;100.00;93222.31;2121916;27;20164;-75
2022/10/14 00:04:45;;;;;;;8.18;4.30;;;;;;;9.32;100.00;93231.91;2122155;27;20026;-74
2022/10/14 00:05:47;;;;;;;6.55;4.43;;;;;;;9.32;100.00;93229.97;2112867;28;20117;-75
2022/10/14 00:06:48;;;;;;;12.27;4.47;;;;;;;9.28;100.00;93223.94;2105255;28;20101;-75
2022/10/14 00:07:49;;;;;;;8.13;4.93;;;;;;;9.29;100.00;93224.69;2104758;28;20474;-75
2022/10/14 00:08:50;;;;;;;8.65;4.35;;;;;;;9.41;100.00;93215.38;2104463;28;20514;-75
2022/10/14 00:09:51;;;;;;;6.93;4.18;;;;;;;9.41;100.00;93223.38;2112876;28;20031;-76
2022/10/14 00:10:52;;;;;;;7.55;4.22;;;;;;;9.41;100.00;93215.38;2122306;27;20141;-75
2022/10/14 00:11:53;;;;;;;8.52;4.25;;;;;;;9.41;100.00;93223.38;2121627;27;20046;-74
2022/10/14 00:12:54;;;;;;;4.65;4.18;;;;;;;9.37;100.00;93220.00;2122257;27;20468;-75
2022/10/14 00:13:59;;;;;;;8.93;4.30;;;;;;;9.31;100.00;93223.16;2121812;27;20027;-74
2022/10/14 00:15:00;;;;;;;6.93;4.13;;;;;;;9.31;100.00;93227.72;2122336;27;20027;-77
2022/10/14 00:16:02;;;;;;;11.68;4.07;;;;;;;9.31;100.00;93225.06;2122182;27;20088;-75
2022/10/14 00:17:03;;;;;;;8.63;4.57;;;;;;;9.30;100.00;93218.94;2121570;27;20070;-73
2022/10/14 00:18:04;;;;;;;6.63;4.32;;;;;;;9.24;100.00;93230.50;2122051;27;20408;-74
2022/10/14 00:19:06;;;;;;;7.18;4.50;;;;;;;9.23;100.00;93226.31;2121397;27;20030;-75
2022/10/14 00:20:08;;;;;;;11.05;4.50;;;;;;;9.22;100.00;93228.25;2113113;28;20030;-75
2022/10/14 00:21:09;;;;;;;6.05;4.20;;;;;;;9.24;100.00;93217.16;2113149;28;20516;-74
2022/10/14 00:22:10;;;;;;;12.13;5.00;;;;;;;9.27;100.00;93227.03;2122348;27;20038;-75
2022/10/14 00:23:11;;;;;;;9.93;4.50;;;;;;;9.31;100.00;93227.72;2122276;27;20051;-75
2022/10/14 00:24:14;;;;;;;8.55;3.88;;;;;;;9.29;100.00;93224.69;2121236;27;20027;-76
2022/10/14 00:25:15;;;;;;;6.80;4.20;;;;;;;9.24;100.00;93233.91;2112815;28;20051;-75
2022/10/14 00:26:21;;;;;;;6.00;3.95;;;;;;;9.26;100.00;93225.50;2113238;28;20171;-75
2022/10/14 00:27:22;;;;;;;8.35;4.10;;;;;;;9.28;100.00;93233.88;2109400;28;20091;-75
2022/10/14 00:28:23;;;;;;;7.72;4.07;;;;;;;9.27;100.00;93224.34;2113243;28;20039;-76
2022/10/14 00:29:24;;;;;;;5.93;4.00;;;;;;;9.25;100.00;93224.75;2117984;27;20039;-76
2022/10/14 00:30:25;;;;;;;5.22;3.92;;;;;;;9.30;100.00;93223.53;2112814;28;20066;-74
2022/10/14 00:31:27;;;;;;;6.68;4.22;;;;;;;9.28;100.00;93223.19;2112932;27;20457;-74
2022/10/14 00:32:28;;;;;;;6.22;3.90;;;;;;;9.27;100.00;93230.44;2122440;27;20019;-74
2022/10/14 00:33:29;;;;;;;6.05;4.35;;;;;;;9.33;100.00;93222.72;2122228;27;20034;-74
2022/10/14 00:34:31;;;;;;;6.32;4.15;;;;;;;9.29;100.00;93222.03;2121684;27;20369;-74
2022/10/14 00:35:33;;;;;;;5.28;4.03;;;;;;;9.30;100.00;93231.53;2104572;28;20031;-75
2022/10/14 00:36:34;;;;;;;5.75;4.00;;;;;;;9.29;100.00;93222.78;2104729;28;20115;-75
2022/10/14 00:37:35;;;;;;;6.85;4.30;;;;;;;9.23;100.00;93229.75;2121981;27;20034;-75
2022/10/14 00:38:36;;;;;;;5.60;4.07;;;;;;;9.24;100.00;93220.56;2112556;28;20032;-75
2022/10/14 00:39:37;;;;;;;5.75;3.75;;;;;;;9.22;100.00;93227.47;2112160;28;20027;-74
2022/10/14 00:40:38;;;;;;;8.63;4.22;;;;;;;9.25;100.00;93224.00;2113068;28;20032;-75
2022/10/14 00:41:39;;;;;;;5.65;3.80;;;;;;;9.26;100.00;93218.28;2112797;27;20638;-75
2022/10/14 00:42:40;;;;;;;9.10;4.30;;;;;;;9.21;100.00;93216.03;2122657;27;20031;-74
2022/10/14 00:43:50;;;;;;;10.57;4.38;;;;;;;9.23;100.00;93221.00;2113782;28;20066;-75
2022/10/14 00:45:02;;;;;;;8.85;3.90;;;;;;;9.23;100.00;93221.75;2110242;27;20023;-75
2022/10/14 00:46:03;;;;;;;4.80;3.97;;;;;;;9.23;100.00;93213.00;2122177;27;20026;-76
2022/10/14 00:47:04;;;;;;;10.63;4.47;;;;;;;9.24;100.00;93214.50;2112666;28;20043;-75
2022/10/14 00:48:07;;;;;;;8.15;4.30;;;;;;;9.24;100.00;93209.91;2112700;27;20034;-75
2022/10/14 00:49:19;;;;;;;7.30;3.97;;;;;;;9.23;100.00;93213.75;2121925;27;20035;-75
2022/10/14 00:50:20;;;;;;;8.20;3.80;;;;;;;9.18;100.00;93211.53;2117690;27;20049;-75
2022/10/14 00:51:21;;;;;;;7.35;4.13;;;;;;;9.20;100.00;93211.13;2122060;27;20026;-75
2022/10/14 00:52:23;;;;;;;7.72;4.22;;;;;;;9.19;100.00;93207.69;2121771;27;20456;-75
2022/10/14 00:53:24;;;;;;;6.60;4.65;;;;;;;9.19;100.00;93207.69;2122160;27;20023;-76
2022/10/14 00:54:32;;;;;;;8.18;4.03;;;;;;;9.22;100.00;93209.56;2121493;27;20122;-75
2022/10/14 00:55:33;;;;;;;6.70;4.00;;;;;;;9.24;100.00;93203.81;2121082;27;20064;-74
2022/10/14 00:56:35;;;;;;;8.48;5.05;;;;;;;9.21;100.00;93205.38;2122113;27;20023;-75
2022/10/14 00:57:37;;;;;;;5.45;4.38;;;;;;;9.25;100.00;93200.00;2121697;27;20075;-75
2022/10/14 00:58:38;;;;;;;12.35;4.05;;;;;;;9.27;100.00;93203.78;2122186;27;20023;-75
2022/10/14 00:59:39;;;;;;;10.27;4.28;;;;;;;9.29;100.00;93201.44;2122104;27;20023;-76
2022/10/14 01:00:40;;;;;;;10.35;4.22;;;;;;;9.26;100.00;93207.59;2121914;27;20037;-75
2022/10/14 01:01:41;;;;;;;9.90;4.32;;;;;;;9.26;100.00;93209.50;2122617;27;20023;-74
2022/10/14 01:02:44;;;;;;;7.90;4.10;;;;;;;9.27;100.00;93203.78;2122769;27;20106;-74
2022/10/14 01:03:46;;;;;;;4.05;3.65;;;;;;;9.30;100.00;93205.59;2121640;27;20063;-76
2022/10/14 01:04:47;;;;;;;9.15;4.00;;;;;;;9.31;100.00;93201.81;2122324;27;20510;-74
2022/10/14 01:06:22;;;;;;;11.43;4.15;;;;;;;9.22;100.00;93211.47;2114383;27;20023;-74
2022/10/14 01:07:26;;;;;;;9.52;4.40;;;;;;;9.30;100.00;93210.19;2097058;27;20130;-74
2022/10/14 01:08:39;;;;;;;7.82;4.28;;;;;;;9.32;100.00;93210.56;2121379;27;20035;-76
2022/10/14 01:09:58;;;;;;;4.88;3.88;;;;;;;9.39;100.00;93209.69;2121614;27;20114;-75
2022/10/14 01:11:24;;;;;;;8.65;4.13;;;;;;;9.33;100.00;93206.72;2119035;27;20022;-75
2022/10/14 01:12:25;;;;;;;5.10;3.75;;;;;;;9.33;100.00;93206.72;2078601;28;20128;-76
2022/10/14 01:13:34;;;;;;;6.78;4.20;;;;;;;9.32;100.00;93205.97;2103087;28;20032;-75
2022/10/14 01:14:38;;;;;;;9.70;4.38;;;;;;;9.29;100.00;93200.69;2113788;28;20066;-76
2022/10/14 01:16:02;;;;;;;4.55;3.53;;;;;;;9.36;100.00;93210.50;2121812;27;20196;-75
2022/10/14 01:17:17;;;;;;;6.60;3.72;;;;;;;9.42;100.00;93198.22;2120354;27;20046;-75
2022/10/14 01:18:30;;;;;;;7.65;3.45;;;;;;;9.41;100.00;93204.72;2113311;28;20032;-74
2022/10/14 01:19:59;;;;;;;12.65;3.83;;;;;;;9.36;100.00;93197.91;2121585;27;20084;-73
2022/10/14 01:21:19;;;;;;;7.85;4.18;;;;;;;9.54;100.00;93197.63;2118728;27;20382;-75
2022/10/14 01:22:23;;;;;;;8.75;3.83;;;;;;;9.44;100.00;93196.66;2121736;27;20233;-74
2022/10/14 01:23:44;;;;;;;4.03;3.17;;;;;;;9.45;100.00;93198.16;2121684;27;20109;-75
2022/10/14 01:25:19;;;;;;;10.20;4.10;;;;;;;9.41;100.00;93191.38;2121285;27;20031;-77
2022/10/14 01:26:38;;;;;;;5.93;3.78;;;;;;;9.34;100.00;93197.56;2117457;27;20066;-75
2022/10/14 01:28:12;;;;;;;6.95;4.03;;;;;;;9.31;100.00;93188.47;2120535;27;20480;-75
2022/10/14 01:29:31;;;;;;;4.95;3.50;;;;;;;9.43;100.00;93191.69;2121089;27;20043;-76
2022/10/14 01:30:40;;;;;;;7.95;3.72;;;;;;;9.40;100.00;93187.94;2119460;27;20034;-77
2022/10/14 01:31:50;;;;;;;7.35;3.85;;;;;;;9.37;100.00;93188.00;2121754;27;20408;-75
2022/10/14 01:33:05;;;;;;;9.05;3.70;;;;;;;9.34;100.00;93194.88;2117747;27;20521;-77
2022/10/14 01:34:10;;;;;;;5.25;3.85;;;;;;;9.41;100.00;93183.38;2121434;27;20030;-76
2022/10/14 01:35:47;;;;;;;7.57;3.72;;;;;;;9.36;100.00;93181.91;2121931;27;20019;-75
2022/10/14 01:36:57;;;;;;;5.78;3.17;;;;;;;9.35;100.00;93188.41;2122281;27;20046;-75
2022/10/14 01:38:02;;;;;;;7.75;3.75;;;;;;;9.32;100.00;93178.56;2120627;27;20035;-75
2022/10/14 01:39:19;;;;;;;4.15;3.50;;;;;;;9.31;100.00;93177.03;2123226;27;20383;-76
2022/10/14 01:40:33;;;;;;;4.20;3.70;;;;;;;9.28;100.00;93188.53;2119769;27;20094;-75
2022/10/14 01:41:42;;;;;;;6.03;4.00;;;;;;;9.29;100.00;93179.34;2122628;27;20027;-75
2022/10/14 01:42:45;;;;;;;8.90;3.70;;;;;;;9.25;100.00;93182.06;2122051;27;20084;-75
2022/10/14 01:43:49;;;;;;;5.88;3.42;;;;;;;9.27;100.00;93187.03;2113366;28;20019;-76
2022/10/14 01:44:59;;;;;;;5.93;3.05;;;;;;;9.30;100.00;93175.53;2109125;28;20031;-76
2022/10/14 01:46:04;;;;;;;5.60;4.10;;;;;;;9.26;100.00;93190.81;2121394;27;20543;-75
2022/10/14 01:47:07;;;;;;;6.93;3.58;;;;;;;9.27;100.00;93177.09;2120999;27;20031;-75
2022/10/14 01:48:10;;;;;;;4.10;3.40;;;;;;;9.27;100.00;93173.69;2121630;27;20019;-75
2022/10/14 01:49:18;;;;;;;5.30;3.65;;;;;;;9.24;100.00;93172.56;2121518;27;20023;-75
2022/10/14 01:50:23;;;;;;;5.10;3.50;;;;;;;9.25;100.00;93171.41;2108300;28;20485;-77
2022/10/14 01:51:34;;;;;;;5.97;3.60;;;;;;;9.27;100.00;93174.44;2113098;27;20078;-75
2022/10/14 01:52:41;;;;;;;8.32;3.90;;;;;;;9.26;100.00;93170.25;2120423;27;20472;-76
2022/10/14 01:53:49;;;;;;;5.20;3.65;;;;;;;9.26;100.00;93178.25;2121368;27;20118;-75
2022/10/14 01:54:55;;;;;;;5.45;3.35;;;;;;;9.29;100.00;93174.00;2117475;27;20046;-74
2022/10/14 01:55:57;;;;;;;4.97;3.70;;;;;;;9.27;100.00;93171.75;2121678;27;20023;-75
2022/10/14 01:57:03;;;;;;;5.55;3.78;;;;;;;9.25;100.00;93178.66;2121403;27;20073;-75
2022/10/14 01:58:05;;;;;;;4.93;3.58;;;;;;;9.27;100.00;93176.34;2111953;28;20019;-74
2022/10/14 01:59:09;;;;;;;9.02;3.50;;;;;;;9.22;100.00;93182.13;2112127;28;20107;-74
2022/10/14 02:00:10;;;;;;;5.22;4.15;;;;;;;9.24;100.00;93182.47;2121360;27;20563;-75
2022/10/14 02:01:11;;;;;;;5.95;4.10;;;;;;;9.28;100.00;93177.84;2121558;27;20015;-73
2022/10/14 02:02:13;;;;;;;5.03;3.38;;;;;;;9.27;100.00;93187.03;2121515;27;20096;-73
2022/10/14 02:03:14;;;;;;;5.10;3.45;;;;;;;9.27;100.00;93176.34;2121315;27;20027;-73
2022/10/14 02:04:17;;;;;;;8.82;3.85;;;;;;;9.26;100.00;93185.50;2121019;27;20131;-73
2022/10/14 02:05:25;;;;;;;5.35;3.72;;;;;;;9.24;100.00;93185.91;2107829;28;20027;-74
2022/10/14 02:06:32;;;;;;;6.10;3.72;;;;;;;9.25;100.00;93186.66;2113438;27;20035;-73
2022/10/14 02:07:46;;;;;;;5.85;3.17;;;;;;;9.31;100.00;93190.38;2121308;27;20030;-74
2022/10/14 02:08:56;;;;;;;4.57;3.88;;;;;;;9.28;100.00;93188.53;2108753;28;20123;-75
2022/10/14 02:10:29;;;;;;;5.78;3.25;;;;;;;9.44;100.00;93177.97;2106421;28;20110;-75
2022/10/14 02:11:40;;;;;;;7.03;3.47;;;;;;;9.36;100.00;93179.25;2114505;27;20716;-74
2022/10/14 02:12:59;;;;;;;4.18;3.17;;;;;;;9.32;100.00;93173.22;2121509;27;20094;-74
2022/10/14 02:16:18;;;;;;;;;;;;;;;9.32;100.00;93176.63;2147353;27;20538;-72
2022/10/14 02:17:37;;;;;;;4.72;3.28;;;;;;;9.31;100.00;93171.72;2137699;27;19915;-72
2022/10/14 02:18:47;;;;;;;4.00;3.25;;;;;;;9.34;100.00;93173.56;2141614;27;20041;-71
2022/10/14 02:19:57;;;;;;;7.40;3.75;;;;;;;9.33;100.00;93166.72;2137688;27;20030;-75
2022/10/14 02:21:20;;;;;;;8.90;3.70;;;;;;;9.31;100.00;93167.13;2145008;27;20451;-72
2022/10/14 02:22:32;;;;;;;5.53;3.92;;;;;;;9.28;100.00;93161.84;2128029;27;20042;-75
2022/10/14 02:23:41;;;;;;;4.10;3.70;;;;;;;9.26;100.00;93161.47;2134089;27;20511;-76
2022/10/14 02:24:48;;;;;;;5.25;3.47;;;;;;;9.21;100.00;93162.69;2141235;27;20030;-74
2022/10/14 02:25:50;;;;;;;4.68;3.60;;;;;;;9.26;100.00;93156.94;2128159;27;20571;-72
2022/10/14 02:26:54;;;;;;;7.43;3.40;;;;;;;9.24;100.00;93161.91;2132456;27;20030;-73
2022/10/14 02:27:57;;;;;;;5.65;3.83;;;;;;;9.26;100.00;93148.94;2141791;27;20037;-73
2022/10/14 02:29:00;;;;;;;8.30;3.70;;;;;;;9.30;100.00;93160.25;2141062;27;20416;-72
2022/10/14 02:30:03;;;;;;;5.63;3.40;;;;;;;9.26;100.00;93148.94;2140122;27;20066;-73
2022/10/14 02:31:09;;;;;;;7.15;3.83;;;;;;;9.27;100.00;93152.34;2132118;27;20029;-74
2022/10/14 02:32:14;;;;;;;5.70;3.35;;;;;;;9.30;100.00;93152.25;2133874;27;20447;-73
2022/10/14 02:33:19;;;;;;;6.20;4.03;;;;;;;9.32;100.00;93146.53;2142409;27;20025;-74
2022/10/14 02:34:23;;;;;;;8.57;3.60;;;;;;;9.25;100.00;93151.97;2137122;27;20081;-75
2022/10/14 02:35:25;;;;;;;7.82;4.30;;;;;;;9.19;100.00;93154.38;2137781;27;20022;-72
2022/10/14 02:36:28;;;;;;;7.38;4.22;;;;;;;9.15;100.00;93147.59;2141657;27;20054;-75
2022/10/14 02:37:31;;;;;;;7.15;3.88;;;;;;;9.16;100.00;93144.50;2141413;27;20085;-74
2022/10/14 02:38:32;;;;;;;5.78;4.15;;;;;;;9.18;100.00;93147.53;2132329;27;20034;-75
2022/10/14 02:39:40;;;;;;;7.68;3.90;;;;;;;9.17;100.00;93142.59;2132315;27;20026;-76
2022/10/14 02:40:45;;;;;;;6.72;4.18;;;;;;;9.12;100.00;93146.47;2134291;27;20346;-75
2022/10/14 02:41:46;;;;;;;6.35;3.60;;;;;;;9.09;100.00;93144.63;2128735;27;20030;-76
2022/10/14 02:42:47;;;;;;;7.93;3.80;;;;;;;9.07;100.00;93147.69;2141501;27;20034;-75
2022/10/14 02:43:48;;;;;;;9.10;4.28;;;;;;;9.05;100.00;93154.59;2137428;27;20067;-76
2022/10/14 02:44:54;;;;;;;4.53;3.83;;;;;;;9.04;100.00;93139.72;2141211;27;20075;-76
2022/10/14 02:45:58;;;;;;;9.00;3.28;;;;;;;9.03;100.00;93148.91;2138581;27;20049;-72
2022/10/14 02:46:59;;;;;;;7.82;3.90;;;;;;;9.08;100.00;93146.50;2141065;27;20441;-74
2022/10/14 02:47:59;;;;;;;4.65;3.67;;;;;;;9.06;100.00;93146.19;2141385;27;20051;-74
2022/10/14 02:49:00;;;;;;;7.30;3.92;;;;;;;9.04;100.00;93142.41;2131504;27;20026;-75
2022/10/14 02:50:02;;;;;;;5.40;4.05;;;;;;;9.11;100.00;93139.63;2129741;27;20202;-75
2022/10/14 02:51:03;;;;;;;5.47;3.78;;;;;;;9.07;100.00;93145.00;2140256;27;20026;-76
2022/10/14 02:52:05;;;;;;;9.20;4.25;;;;;;;9.06;100.00;93138.19;2141408;27;20155;-74
2022/10/14 02:53:07;;;;;;;6.30;4.13;;;;;;;9.07;100.00;93130.94;2141196;27;20015;-77
2022/10/14 02:54:07;;;;;;;6.65;4.35;;;;;;;9.12;100.00;93133.13;2141264;27;20582;-75
2022/10/14 02:55:08;;;;;;;7.85;3.85;;;;;;;9.01;100.00;93125.31;2141411;27;20038;-73
2022/10/14 02:56:12;;;;;;;4.68;4.03;;;;;;;9.02;100.00;93120.72;2144420;27;20042;-74
2022/10/14 02:57:13;;;;;;;7.25;3.50;;;;;;;9.07;100.00;93123.69;2138282;27;20022;-74
2022/10/14 02:58:14;;;;;;;7.53;3.72;;;;;;;9.00;100.00;93117.69;2142118;27;20037;-72
2022/10/14 02:59:15;;;;;;;8.48;3.78;;;;;;;9.06;100.00;93126.75;2141769;27;20107;-74
2022/10/14 03:00:18;;;;;;;4.40;3.90;;;;;;;8.98;100.00;93120.78;2141548;27;20033;-72
2022/10/14 03:01:19;;;;;;;5.38;3.45;;;;;;;9.03;100.00;93114.25;2136252;27;20033;-74
2022/10/14 03:02:20;;;;;;;4.22;3.67;;;;;;;9.03;100.00;93122.25;2141349;27;20022;-73
2022/10/14 03:03:21;;;;;;;5.53;3.97;;;;;;;8.99;100.00;93116.19;2141544;27;20070;-75
2022/10/14 03:04:22;;;;;;;7.00;3.90;;;;;;;9.00;100.00;93113.16;2141051;27;20456;-74
2022/10/14 03:05:23;;;;;;;6.22;3.72;;;;;;;8.97;100.00;93118.53;2141127;27;20030;-74
2022/10/14 03:06:24;;;;;;;7.78;3.92;;;;;;;8.97;100.00;93116.63;2136677;27;20466;-77
2022/10/14 03:07:25;;;;;;;5.90;3.88;;;;;;;8.92;100.00;93114.41;2139318;27;20026;-75
2022/10/14 03:08:26;;;;;;;8.07;3.78;;;;;;;8.96;100.00;93123.13;2141429;27;20026;-74
2022/10/14 03:09:28;;;;;;;6.35;4.00;;;;;;;8.93;100.00;93121.25;2142785;27;20061;-75
2022/10/14 03:10:29;;;;;;;4.00;3.45;;;;;;;8.91;100.00;93112.91;2141096;27;20026;-73
2022/10/14 03:11:30;;;;;;;4.95;3.40;;;;;;;8.94;100.00;93122.75;2130107;27;20030;-73
2022/10/14 03:12:31;;;;;;;8.25;3.83;;;;;;;8.98;100.00;93118.13;2125088;27;20043;-76
2022/10/14 03:13:32;;;;;;;5.90;3.72;;;;;;;8.97;100.00;93121.94;2132250;27;20204;-76
2022/10/14 03:14:33;;;;;;;7.93;3.60;;;;;;;9.01;100.00;93117.31;2123483;27;20477;-74
2022/10/14 03:15:34;;;;;;;8.38;3.92;;;;;;;8.93;100.00;93121.25;2133698;27;20133;-76
2022/10/14 03:16:35;;;;;;;4.90;3.42;;;;;;;8.99;100.00;93130.28;2132777;27;20034;-75
2022/10/14 03:17:36;;;;;;;5.10;3.92;;;;;;;8.98;100.00;93118.13;2131426;27;20519;-73
2022/10/14 03:18:37;;;;;;;4.85;3.75;;;;;;;8.93;100.00;93120.50;2132447;27;20117;-72
2022/10/14 03:19:38;;;;;;;8.35;4.80;;;;;;;8.92;100.00;93119.75;2129889;27;20030;-77
2022/10/14 03:20:39;;;;;;;8.35;5.25;;;;;;;8.98;100.00;93120.78;2133300;27;20682;-75
2022/10/14 03:21:40;;;;;;;7.10;6.43;;;;;;;9.01;100.00;93113.91;2132002;27;20117;-75
2022/10/14 03:22:41;;;;;;;8.38;4.65;;;;;;;8.96;100.00;93111.69;2130885;27;20519;-75
2022/10/14 03:23:42;;;;;;;6.85;4.50;;;;;;;8.99;100.00;93114.28;2133365;27;20022;-73
2022/10/14 03:24:44;;;;;;;5.10;4.03;;;;;;;9.02;100.00;93113.50;2131972;27;20023;-73
2022/10/14 03:25:45;;;;;;;6.20;4.82;;;;;;;9.06;100.00;93103.53;2132767;27;20051;-74
2022/10/14 03:26:46;;;;;;;4.00;3.58;;;;;;;9.02;100.00;93094.06;2130824;27;20090;-75
2022/10/14 03:27:47;;;;;;;6.80;4.10;;;;;;;8.95;100.00;93102.94;2126957;27;20023;-75
2022/10/14 03:28:48;;;;;;;7.22;3.90;;;;;;;9.06;100.00;93095.53;2122639;27;20076;-76
2022/10/14 03:29:49;;;;;;;8.88;3.80;;;;;;;9.00;100.00;93101.72;2126744;27;20029;-73
2022/10/14 03:30:50;;;;;;;6.53;3.70;;;;;;;8.98;100.00;93107.47;2126537;27;20075;-73
2022/10/14 03:31:51;;;;;;;10.88;4.07;;;;;;;8.96;100.00;93104.44;2122733;27;20373;-75
2022/10/14 03:32:52;;;;;;;6.43;3.50;;;;;;;9.00;100.00;93107.03;2126522;27;20035;-77
2022/10/14 03:33:54;;;;;;;7.25;3.65;;;;;;;9.05;100.00;93104.69;2128021;27;20516;-77
2022/10/14 03:34:55;;;;;;;9.60;3.50;;;;;;;9.04;100.00;93099.75;2126611;27;20784;-76
2022/10/14 03:35:56;;;;;;;6.53;3.55;;;;;;;9.07;100.00;93101.59;2126450;27;20027;-74
2022/10/14 03:36:57;;;;;;;5.50;4.00;;;;;;;9.07;100.00;93098.94;2126667;27;20250;-76
2022/10/14 03:38:01;;;;;;;6.80;3.78;;;;;;;9.05;100.00;93093.28;2123974;27;20031;-72
2022/10/14 03:39:02;;;;;;;5.13;3.47;;;;;;;9.05;100.00;93098.59;2126078;27;20022;-71
2022/10/14 03:40:04;;;;;;;9.20;3.97;;;;;;;9.08;100.00;93095.84;2128241;27;20406;-77
2022/10/14 03:41:05;;;;;;;6.53;3.55;;;;;;;9.04;100.00;93095.19;2129278;27;20068;-74
2022/10/14 03:42:06;;;;;;;6.22;3.80;;;;;;;9.08;100.00;93095.84;2126157;27;20449;-76
2022/10/14 03:43:07;;;;;;;6.95;3.70;;;;;;;9.08;100.00;93095.84;2126187;27;20152;-75
2022/10/14 03:44:08;;;;;;;6.70;3.83;;;;;;;9.07;100.00;93097.03;2124727;27;20034;-73
2022/10/14 03:45:11;;;;;;;5.05;3.72;;;;;;;9.11;100.00;93098.88;2125541;27;20031;-76
2022/10/14 03:46:11;;;;;;;4.15;3.75;;;;;;;9.13;100.00;93097.34;2126648;27;20422;-74
2022/10/14 03:47:12;;;;;;;4.88;3.65;;;;;;;9.13;100.00;93102.66;2126580;27;20034;-73
2022/10/14 03:48:13;;;;;;;4.05;3.20;;;;;;;9.10;100.00;93098.13;2125494;27;20529;-75
2022/10/14 03:49:14;;;;;;;6.40;3.50;;;;;;;9.05;100.00;93102.03;2121636;27;20038;-75
2022/10/14 03:50:15;;;;;;;8.70;3.88;;;;;;;9.06;100.00;93100.09;2126460;27;20104;-74
2022/10/14 03:51:16;;;;;;;5.35;4.03;;;;;;;9.06;100.00;93094.78;2126696;27;20031;-73
2022/10/14 03:52:17;;;;;;;12.48;4.10;;;;;;;9.03;100.00;93101.66;2126559;27;20035;-73
2022/10/14 03:53:18;;;;;;;10.30;4.30;;;;;;;9.07;100.00;93098.94;2121635;27;20046;-75
2022/10/14 03:54:20;;;;;;;4.82;3.72;;;;;;;9.09;100.00;93096.63;2125996;27;20083;-75
2022/10/14 03:55:21;;;;;;;6.75;4.10;;;;;;;9.07;100.00;93097.03;2122880;27;20033;-73
2022/10/14 03:56:22;;;;;;;4.55;3.47;;;;;;;9.08;100.00;93098.53;2126600;27;20121;-72
2022/10/14 03:57:23;;;;;;;6.47;3.65;;;;;;;9.11;100.00;93098.88;2126593;27;20050;-75
2022/10/14 03:58:25;;;;;;;10.13;4.47;;;;;;;9.13;100.00;93093.88;2127423;27;20027;-74
2022/10/14 03:59:26;;;;;;;5.50;3.33;;;;;;;9.13;100.00;93099.22;2125040;27;20027;-74
2022/10/14 04:00:27;;;;;;;6.20;3.83;;;;;;;9.14;100.00;93095.41;2124054;27;20062;-75
2022/10/14 04:01:28;;;;;;;6.35;4.50;;;;;;;9.14;100.00;93085.50;2125873;27;20031;-73
2022/10/14 04:02:29;;;;;;;7.03;3.90;;;;;;;9.09;100.00;93096.63;2126042;27;20126;-75
2022/10/14 04:03:30;;;;;;;7.10;3.92;;;;;;;9.07;100.00;93093.59;2126572;27;20118;-73
2022/10/14 04:04:31;;;;;;;8.52;4.72;;;;;;;9.12;100.00;93092.38;2126395;27;20118;-76
2022/10/14 04:05:33;;;;;;;9.02;3.90;;;;;;;9.08;100.00;93095.84;2123979;27;20018;-75
2022/10/14 04:06:35;;;;;;;11.48;4.47;;;;;;;9.14;100.00;93095.41;2124368;27;20029;-73
2022/10/14 04:07:36;;;;;;;5.20;3.83;;;;;;;9.16;100.00;93095.75;2126413;27;20035;-75
2022/10/14 04:08:37;;;;;;;5.43;4.10;;;;;;;9.19;100.00;93100.28;2126661;27;20533;-72
2022/10/14 04:09:38;;;;;;;9.80;3.60;;;;;;;9.15;100.00;93097.66;2126652;27;20890;-72
2022/10/14 04:10:39;;;;;;;4.82;3.45;;;;;;;9.15;100.00;93087.00;2125879;27;20440;-74
2022/10/14 04:11:40;;;;;;;4.43;4.03;;;;;;;9.14;100.00;93095.41;2125655;27;20095;-75
2022/10/14 04:12:42;;;;;;;4.43;3.63;;;;;;;9.16;100.00;93091.16;2127236;27;20023;-74
2022/10/14 04:13:44;;;;;;;7.93;4.35;;;;;;;9.13;100.00;93092.00;2126878;27;20581;-74
2022/10/14 04:14:45;;;;;;;5.20;4.05;;;;;;;9.19;100.00;93090.38;2127142;27;20414;-72
2022/10/14 04:15:46;;;;;;;4.90;4.00;;;;;;;9.18;100.00;93085.44;2132307;27;20088;-73
2022/10/14 04:16:47;;;;;;;4.97;3.50;;;;;;;9.20;100.00;93081.19;2134761;27;20109;-76
2022/10/14 04:17:49;;;;;;;4.70;4.15;;;;;;;9.18;100.00;93080.88;2134640;27;20031;-75
2022/10/14 04:18:50;;;;;;;8.30;3.60;;;;;;;9.18;100.00;93091.53;2130979;27;20057;-74
2022/10/14 04:19:51;;;;;;;5.88;5.00;;;;;;;9.20;100.00;93085.78;2114118;27;20372;-72
2022/10/14 04:20:54;;;;;;;9.98;8.98;;;;;;;9.20;100.00;93083.13;2119076;27;20477;-73
2022/10/14 04:21:55;;;;;;;8.02;5.50;;;;;;;9.20;100.00;93083.88;2131898;27;20029;-72
2022/10/14 04:22:58;;;;;;;16.08;8.60;;;;;;;9.16;100.00;93080.50;2135226;27;20026;-72
2022/10/14 04:24:00;;;;;;;14.57;10.32;;;;;;;9.15;100.00;93080.91;2134455;27;20054;-76
2022/10/14 04:25:01;;;;;;;10.70;9.32;;;;;;;9.18;100.00;93080.88;2134857;27;20022;-72
2022/10/14 04:26:08;;;;;;;11.10;10.02;;;;;;;9.20;100.00;93075.09;2134828;27;20030;-71
2022/10/14 04:27:09;;;;;;;7.50;6.45;;;;;;;9.18;100.00;93078.19;2133102;27;20041;-73
2022/10/14 04:28:10;;;;;;;8.63;5.50;;;;;;;9.21;100.00;93077.34;2134533;27;20026;-71
2022/10/14 04:29:11;;;;;;;12.15;9.30;;;;;;;9.23;100.00;93074.31;2134862;27;20045;-72
2022/10/14 04:30:12;;;;;;;8.82;6.28;;;;;;;9.23;100.00;93077.72;2134675;27;20022;-72
2022/10/14 04:31:13;;;;;;;9.00;7.53;;;;;;;9.25;100.00;93069.31;2125402;27;20030;-74
2022/10/14 04:32:14;;;;;;;9.95;6.85;;;;;;;9.21;100.00;93065.94;2124895;27;20027;-72
2022/10/14 04:33:15;;;;;;;6.75;6.03;;;;;;;9.20;100.00;93067.09;2134892;27;20371;-72
2022/10/14 04:34:16;;;;;;;8.60;6.00;;;;;;;9.18;100.00;93069.44;2134387;27;20117;-73
2022/10/14 04:35:17;;;;;;;10.52;8.40;;;;;;;9.23;100.00;93061.72;2125090;27;20033;-75
2022/10/14 04:36:18;;;;;;;10.80;6.47;;;;;;;9.25;100.00;93063.97;2121252;27;20057;-74
2022/10/14 04:37:20;;;;;;;9.65;8.65;;;;;;;9.20;100.00;93059.09;2129823;27;20060;-72
2022/10/14 04:38:21;;;;;;;9.57;6.00;;;;;;;9.23;100.00;93064.38;2134434;27;20349;-72
2022/10/14 04:39:22;;;;;;;8.18;5.15;;;;;;;9.22;100.00;93062.09;2124922;27;20061;-71
2022/10/14 04:40:25;;;;;;;9.93;5.05;;;;;;;9.16;100.00;93064.50;2124783;27;20039;-72
2022/10/14 04:41:26;;;;;;;9.93;5.03;;;;;;;9.25;100.00;93063.97;2134587;27;20058;-74
2022/10/14 04:42:27;;;;;;;5.75;4.00;;;;;;;9.20;100.00;93075.84;2133354;27;20065;-72
2022/10/14 04:43:28;;;;;;;7.18;4.05;;;;;;;9.21;100.00;93066.69;2134664;27;20037;-72
2022/10/14 04:44:29;;;;;;;5.03;4.07;;;;;;;9.20;100.00;93065.19;2134700;27;20030;-72
2022/10/14 04:45:30;;;;;;;8.57;3.90;;;;;;;9.23;100.00;93063.63;2134612;27;20069;-70
2022/10/14 04:46:31;;;;;;;4.40;3.72;;;;;;;9.15;100.00;93056.91;2134687;27;20030;-69
2022/10/14 04:47:32;;;;;;;6.47;3.40;;;;;;;9.14;100.00;93056.16;2131491;27;20043;-71
2022/10/14 04:48:33;;;;;;;4.82;3.88;;;;;;;9.19;100.00;93057.59;2136584;27;20065;-69
2022/10/14 04:49:35;;;;;;;9.13;3.67;;;;;;;9.15;100.00;93055.00;2131364;27;20527;-70
2022/10/14 04:50:36;;;;;;;9.45;4.07;;;;;;;9.17;100.00;93055.34;2134644;27;20460;-70
2022/10/14 04:51:37;;;;;;;7.25;3.88;;;;;;;9.16;100.00;93048.50;2133948;27;20035;-69
2022/10/14 04:52:38;;;;;;;9.77;4.07;;;;;;;9.14;100.00;93050.84;2134399;27;20069;-72
2022/10/14 04:53:39;;;;;;;4.30;3.70;;;;;;;9.14;100.00;93044.75;2133910;27;20105;-72
2022/10/14 04:54:40;;;;;;;5.78;3.90;;;;;;;9.16;100.00;93037.84;2129842;27;20037;-73
2022/10/14 04:55:42;;;;;;;5.88;4.22;;;;;;;9.14;100.00;93042.09;2126166;27;20038;-72
2022/10/14 04:56:43;;;;;;;4.88;4.35;;;;;;;9.15;100.00;93046.25;2132731;27;20541;-73
2022/10/14 04:57:44;;;;;;;5.50;4.07;;;;;;;9.16;100.00;93039.75;2123393;27;20027;-72
2022/10/14 04:58:46;;;;;;;10.40;4.25;;;;;;;9.11;100.00;93040.22;2125293;27;20019;-72
2022/10/14 04:59:47;;;;;;;8.77;4.28;;;;;;;9.14;100.00;93040.16;2124663;27;20031;-73
2022/10/14 05:00:48;;;;;;;6.93;4.10;;;;;;;9.17;100.00;93041.25;2125073;27;20076;-74
2022/10/14 05:01:50;;;;;;;6.88;3.95;;;;;;;9.24;100.00;93035.81;2130571;27;20476;-75
2022/10/14 05:02:51;;;;;;;7.07;4.05;;;;;;;9.29;100.00;93030.75;2134537;27;20030;-74